createdAt,value
2018-12-31T00:01:09.629Z,17.23
2018-12-31T00:04:12.801Z,15.80
2018-12-31T00:07:15.861Z,18.97
2018-12-31T00:10:18.893Z,14.20
2018-12-31T00:13:21.752Z,17.63
2018-12-31T00:16:24.605Z,19.97
2018-12-31T00:19:27.556Z,21.13
2018-12-31T00:22:30.768Z,15.83
2018-12-31T00:25:33.893Z,17.03
2018-12-31T00:28:37.327Z,21.70
2018-12-31T00:31:40.379Z,25.33
2018-12-31T00:34:43.719Z,14.93
2018-12-31T00:37:47.683Z,23.47
2018-12-31T00:40:51.021Z,18.80
2018-12-31T00:43:54.079Z,17.83
2018-12-31T00:46:57.720Z,15.60
2018-12-31T00:50:00.870Z,15.67
2018-12-31T00:53:04.075Z,15.33
2018-12-31T00:56:07.263Z,21.80
2018-12-31T00:59:10.459Z,20.60
2018-12-31T01:02:14.470Z,24.53
2018-12-31T01:05:17.774Z,26.23
2018-12-31T01:08:21.033Z,20.70
2018-12-31T01:11:24.163Z,16.60
2018-12-31T01:14:27.256Z,14.47
2018-12-31T01:17:30.352Z,23.13
2018-12-31T01:20:33.507Z,18.50
2018-12-31T01:23:36.731Z,19.40
2018-12-31T01:26:39.979Z,23.60
2018-12-31T01:29:43.130Z,20.90
2018-12-31T01:32:46.294Z,33.60
2018-12-31T01:35:50.438Z,28.30
2018-12-31T01:38:53.637Z,17.60
2018-12-31T01:41:56.853Z,21.10
2018-12-31T01:44:59.922Z,15.53
2018-12-31T01:48:03.010Z,16.27
2018-12-31T01:51:11.284Z,20.97
2018-12-31T01:54:11.279Z,12.33
2018-12-31T01:57:14.352Z,21.20
2018-12-31T02:00:17.434Z,22.43
2018-12-31T02:03:20.629Z,22.30
2018-12-31T02:06:23.828Z,29.10
2018-12-31T02:09:27.019Z,19.40
2018-12-31T02:13:31.563Z,19.93
2018-12-31T02:16:34.747Z,21.27
2018-12-31T02:19:37.984Z,24.37
2018-12-31T02:22:41.075Z,16.50
2018-12-31T02:25:44.231Z,22.33
2018-12-31T02:28:47.455Z,28.93
2018-12-31T02:31:50.620Z,23.73
2018-12-31T02:34:53.748Z,29.47
2018-12-31T02:37:56.803Z,23.10
2018-12-31T02:40:59.935Z,27.63
2018-12-31T02:44:03.130Z,14.87
2018-12-31T02:47:06.319Z,23.47
2018-12-31T02:50:09.379Z,26.63
2018-12-31T02:53:12.507Z,24.10
2018-12-31T02:56:15.563Z,34.80
2018-12-31T02:59:18.659Z,24.57
2018-12-31T03:02:21.788Z,28.70
2018-12-31T03:05:24.842Z,23.47
2018-12-31T03:08:28.076Z,22.57
2018-12-31T03:11:31.128Z,26.90
2018-12-31T03:14:34.470Z,31.40
2018-12-31T03:17:37.624Z,28.50
2018-12-31T03:20:41.135Z,30.33
2018-12-31T03:23:44.218Z,28.50
2018-12-31T03:26:47.342Z,37.47
2018-12-31T03:29:50.406Z,23.47
2018-12-31T03:32:53.632Z,36.87
2018-12-31T03:35:56.788Z,32.37
2018-12-31T03:38:59.887Z,38.20
2018-12-31T03:42:03.438Z,25.27
2018-12-31T03:45:06.794Z,26.73
2018-12-31T03:48:10.015Z,33.03
2018-12-31T03:51:13.074Z,30.97
2018-12-31T03:54:16.203Z,36.23
2018-12-31T03:57:19.260Z,29.73
2018-12-31T04:00:22.362Z,25.07
2018-12-31T04:03:25.446Z,34.17
2018-12-31T04:06:28.544Z,36.07
2018-12-31T04:09:31.638Z,39.23
2018-12-31T04:12:35.750Z,28.37
2018-12-31T04:15:38.843Z,31.37
2018-12-31T04:18:41.939Z,33.67
2018-12-31T04:21:45.170Z,25.90
2018-12-31T04:24:48.226Z,27.10
2018-12-31T04:27:51.324Z,38.23
2018-12-31T04:30:54.407Z,38.03
2018-12-31T04:33:57.585Z,50.10
2018-12-31T04:37:00.695Z,32.60
2018-12-31T04:40:03.797Z,51.50
2018-12-31T04:43:06.880Z,35.63
2018-12-31T04:46:09.975Z,50.20
2018-12-31T04:49:13.164Z,49.90
2018-12-31T04:52:16.263Z,34.97
2018-12-31T04:55:19.259Z,37.33
2018-12-31T04:58:23.325Z,29.63
2018-12-31T05:01:26.668Z,40.20
2018-12-31T05:04:29.765Z,35.60
2018-12-31T05:07:32.851Z,39.80
2018-12-31T05:10:36.250Z,28.37
2018-12-31T05:13:39.592Z,36.27
2018-12-31T05:16:42.847Z,38.83
2018-12-31T05:19:45.938Z,48.07
2018-12-31T05:22:49.031Z,54.53
2018-12-31T05:25:52.223Z,38.97
2018-12-31T05:28:55.328Z,46.97
2018-12-31T05:31:58.422Z,54.63
2018-12-31T05:35:02.669Z,60.63
2018-12-31T05:38:05.722Z,47.77
2018-12-31T05:41:08.851Z,54.70
2018-12-31T05:44:11.911Z,55.80
2018-12-31T05:47:15.059Z,51.93
2018-12-31T05:50:18.195Z,45.60
2018-12-31T05:53:21.328Z,59.63
2018-12-31T05:56:24.526Z,43.90
2018-12-31T05:59:27.858Z,59.17
2018-12-31T06:02:31.179Z,39.13
2018-12-31T06:05:34.278Z,43.87
2018-12-31T06:08:37.508Z,49.33
2018-12-31T06:11:40.770Z,56.33
2018-12-31T06:14:44.214Z,56.37
2018-12-31T06:17:47.366Z,61.23
2018-12-31T06:20:50.686Z,33.80
2018-12-31T06:23:53.754Z,41.73
2018-12-31T06:26:56.585Z,48.67
2018-12-31T06:29:59.783Z,51.50
2018-12-31T06:33:03.126Z,44.40
2018-12-31T06:36:06.175Z,39.07
2018-12-31T06:39:09.398Z,52.20
2018-12-31T06:42:13.275Z,49.67
2018-12-31T06:45:16.612Z,44.53
2018-12-31T06:48:19.667Z,53.17
2018-12-31T06:51:22.794Z,44.40
2018-12-31T06:54:26.068Z,59.63
2018-12-31T06:57:29.258Z,58.03
2018-12-31T07:00:34.235Z,49.30
2018-12-31T07:03:37.282Z,75.13
2018-12-31T07:06:40.523Z,68.60
2018-12-31T07:09:43.675Z,64.83
2018-12-31T07:12:47.793Z,65.63
2018-12-31T07:15:50.986Z,47.07
2018-12-31T07:18:54.112Z,50.83
2018-12-31T07:21:57.167Z,65.27
2018-12-31T07:25:00.270Z,73.60
2018-12-31T07:28:03.354Z,74.00
2018-12-31T07:31:06.552Z,68.60
2018-12-31T07:34:09.871Z,62.73
2018-12-31T07:37:13.039Z,60.67
2018-12-31T07:40:16.271Z,53.83
2018-12-31T07:43:19.535Z,57.30
2018-12-31T07:46:22.733Z,60.67
2018-12-31T07:49:27.670Z,66.80
2018-12-31T07:52:30.763Z,78.23
2018-12-31T07:55:34.032Z,62.33
2018-12-31T07:58:37.155Z,68.30
2018-12-31T08:01:40.375Z,59.00
2018-12-31T08:04:43.535Z,68.60
2018-12-31T08:07:46.735Z,66.47
2018-12-31T08:10:49.832Z,50.50
2018-12-31T08:13:53.019Z,52.23
2018-12-31T08:16:56.129Z,65.30
2018-12-31T08:19:59.311Z,58.27
2018-12-31T08:23:02.545Z,59.77
2018-12-31T08:26:05.706Z,60.87
2018-12-31T08:29:08.897Z,49.40
2018-12-31T08:32:11.992Z,62.63
2018-12-31T08:35:15.191Z,69.77
2018-12-31T08:38:18.383Z,44.90
2018-12-31T08:41:21.475Z,56.87
2018-12-31T08:44:24.667Z,62.90
2018-12-31T08:47:27.771Z,52.37
2018-12-31T08:50:30.854Z,64.20
2018-12-31T08:53:33.950Z,60.30
2018-12-31T08:56:37.142Z,60.07
2018-12-31T08:59:40.238Z,52.70
2018-12-31T09:02:43.331Z,52.53
2018-12-31T09:05:46.415Z,45.50
2018-12-31T09:08:49.723Z,44.93
2018-12-31T09:11:52.807Z,44.00
2018-12-31T09:14:55.942Z,56.45
2018-12-31T09:17:59.099Z,40.13
2018-12-31T09:21:02.223Z,47.37
2018-12-31T09:24:05.490Z,48.20
2018-12-31T09:27:08.714Z,44.60
2018-12-31T09:30:14.345Z,40.10
2018-12-31T09:33:18.180Z,38.55
2018-12-31T09:36:21.343Z,38.33
2018-12-31T09:39:24.666Z,44.20
2018-12-31T09:42:27.773Z,38.23
2018-12-31T09:45:30.827Z,38.40
2018-12-31T09:48:33.947Z,37.90
2018-12-31T09:51:37.108Z,45.10
2018-12-31T09:54:40.339Z,34.87
2018-12-31T09:57:43.498Z,29.40
2018-12-31T10:00:46.623Z,33.47
2018-12-31T10:03:49.691Z,33.63
2018-12-31T10:06:52.879Z,31.23
2018-12-31T10:09:56.020Z,27.07
2018-12-31T10:12:59.067Z,31.73
2018-12-31T10:16:02.296Z,21.57
2018-12-31T10:19:05.363Z,33.17
2018-12-31T10:22:08.477Z,30.40
2018-12-31T10:25:11.647Z,28.03
2018-12-31T10:28:14.837Z,24.20
2018-12-31T10:31:18.059Z,31.63
2018-12-31T10:34:21.131Z,26.27
2018-12-31T10:37:24.455Z,28.00
2018-12-31T10:40:28.052Z,23.07
2018-12-31T10:43:31.319Z,26.30
2018-12-31T10:46:34.519Z,22.22
2018-12-31T10:49:37.611Z,28.30
2018-12-31T10:52:40.806Z,27.73
2018-12-31T10:55:43.899Z,26.15
2018-12-31T10:58:47.238Z,20.60
2018-12-31T11:01:50.291Z,17.23
2018-12-31T11:04:53.387Z,24.23
2018-12-31T11:07:56.485Z,24.17
2018-12-31T11:10:59.570Z,17.35
2018-12-31T11:14:02.867Z,23.30
2018-12-31T11:17:05.955Z,19.60
2018-12-31T11:20:09.160Z,22.90
2018-12-31T11:23:12.245Z,23.70
2018-12-31T11:26:15.746Z,26.30
2018-12-31T11:29:18.946Z,23.47
2018-12-31T11:32:22.146Z,21.33
2018-12-31T11:35:25.243Z,20.73
2018-12-31T11:38:28.330Z,22.35
2018-12-31T11:41:31.415Z,16.55
2018-12-31T11:44:34.506Z,23.73
2018-12-31T11:47:37.702Z,20.52
2018-12-31T11:50:40.908Z,18.07
2018-12-31T11:53:44.103Z,18.97
2018-12-31T11:56:47.291Z,21.12
2018-12-31T11:59:51.576Z,24.82
2018-12-31T12:02:54.970Z,23.15
2018-12-31T12:05:58.102Z,20.08
2018-12-31T12:09:01.199Z,18.90
2018-12-31T12:12:06.474Z,17.52
2018-12-31T12:15:10.042Z,18.73
2018-12-31T12:18:13.134Z,27.93
2018-12-31T12:21:16.236Z,22.45
2018-12-31T12:24:19.523Z,15.28
2018-12-31T12:27:22.633Z,18.73
2018-12-31T12:30:25.843Z,25.37
2018-12-31T12:33:28.942Z,20.72
2018-12-31T12:36:32.139Z,22.80
2018-12-31T12:39:35.228Z,22.58
2018-12-31T12:42:38.230Z,20.97
2018-12-31T12:45:41.823Z,18.65
2018-12-31T12:48:45.220Z,21.45
2018-12-31T12:51:48.316Z,23.87
2018-12-31T12:54:51.403Z,19.80
2018-12-31T12:57:55.701Z,21.57
2018-12-31T13:00:58.815Z,18.25
2018-12-31T13:04:02.083Z,20.80
2018-12-31T13:07:05.719Z,17.90
2018-12-31T13:10:08.963Z,16.75
2018-12-31T13:13:13.138Z,16.20
2018-12-31T13:16:16.362Z,22.27
2018-12-31T13:19:19.574Z,19.55
2018-12-31T13:22:22.859Z,24.05
2018-12-31T13:25:25.915Z,16.95
2018-12-31T13:28:29.453Z,21.57
2018-12-31T13:34:57.450Z,18.90
2018-12-31T13:38:00.611Z,15.18
2018-12-31T13:41:03.954Z,17.07
2018-12-31T13:44:07.102Z,17.12
2018-12-31T13:47:10.468Z,16.80
2018-12-31T13:50:13.699Z,16.75
2018-12-31T13:53:16.927Z,20.20
2018-12-31T13:56:19.984Z,20.48
2018-12-31T13:59:23.130Z,17.45
2018-12-31T14:02:26.174Z,24.47
2018-12-31T14:05:29.302Z,13.05
2018-12-31T14:08:32.454Z,22.45
2018-12-31T14:11:35.696Z,15.75
2018-12-31T14:14:38.856Z,17.00
2018-12-31T14:17:41.976Z,19.85
2018-12-31T14:20:45.036Z,22.90
2018-12-31T14:23:48.334Z,17.80
2018-12-31T14:26:51.526Z,17.92
2018-12-31T14:29:55.756Z,23.60
2018-12-31T14:33:00.643Z,22.13
2018-12-31T14:36:03.779Z,15.25
2018-12-31T14:39:07.079Z,16.45
2018-12-31T14:42:10.271Z,18.77
2018-12-31T14:45:13.562Z,18.20
2018-12-31T14:48:16.764Z,22.10
2018-12-31T14:51:19.854Z,16.77
2018-12-31T14:54:23.155Z,21.68
2018-12-31T14:57:26.342Z,18.70
2018-12-31T15:00:29.543Z,21.70
2018-12-31T15:03:32.846Z,14.60
2018-12-31T15:06:36.030Z,12.25
2018-12-31T15:09:39.436Z,17.32
2018-12-31T15:12:42.731Z,15.48
2018-12-31T15:15:46.240Z,18.33
2018-12-31T15:18:49.631Z,18.48
2018-12-31T15:21:52.732Z,14.05
2018-12-31T15:24:55.823Z,15.90
2018-12-31T15:27:58.915Z,20.27
2018-12-31T15:31:01.907Z,16.40
2018-12-31T15:34:05.206Z,17.05
2018-12-31T15:37:08.740Z,21.82
2018-12-31T15:40:11.924Z,19.85
2018-12-31T15:43:15.022Z,19.43
2018-12-31T15:46:20.439Z,19.23
2018-12-31T15:49:23.151Z,15.40
2018-12-31T15:52:26.211Z,18.90
2018-12-31T15:55:29.341Z,23.75
2018-12-31T15:58:32.662Z,20.07
2018-12-31T16:01:35.903Z,18.20
2018-12-31T16:04:39.133Z,17.77
2018-12-31T16:07:45.997Z,27.48
2018-12-31T16:10:47.567Z,22.30
2018-12-31T16:13:50.628Z,22.58
2018-12-31T16:16:54.075Z,19.30
2018-12-31T16:19:57.226Z,29.42
2018-12-31T16:23:00.347Z,19.40
2018-12-31T16:26:03.407Z,24.50
2018-12-31T16:29:07.210Z,27.63
2018-12-31T16:32:10.314Z,32.63
2018-12-31T16:35:13.514Z,33.73
2018-12-31T16:38:18.559Z,30.65
2018-12-31T16:41:21.639Z,26.52
2018-12-31T16:44:25.219Z,27.45
2018-12-31T16:47:28.339Z,48.55
2018-12-31T16:50:31.562Z,47.27
2018-12-31T16:53:34.618Z,42.47
2018-12-31T16:56:37.752Z,47.17
2018-12-31T16:59:41.014Z,36.33
2018-12-31T17:02:44.203Z,48.25
2018-12-31T17:05:47.366Z,47.83
2018-12-31T17:08:50.695Z,38.53
2018-12-31T17:11:53.826Z,51.03
2018-12-31T17:14:56.999Z,41.30
2018-12-31T17:18:00.287Z,46.60
2018-12-31T17:21:03.379Z,47.27
2018-12-31T17:24:06.567Z,45.53
2018-12-31T17:27:09.704Z,45.47
2018-12-31T17:30:13.171Z,44.87
2018-12-31T17:33:16.300Z,44.35
2018-12-31T17:36:19.461Z,52.60
2018-12-31T17:39:22.487Z,47.73
2018-12-31T17:42:25.539Z,46.05
2018-12-31T17:45:28.763Z,54.67
2018-12-31T17:48:31.824Z,52.90
2018-12-31T17:51:35.023Z,59.37
2018-12-31T17:54:38.318Z,61.67
2018-12-31T17:57:41.414Z,60.27
2018-12-31T18:00:45.914Z,67.83
2018-12-31T18:03:49.035Z,59.07
2018-12-31T18:06:52.223Z,53.30
2018-12-31T18:09:55.319Z,59.47
2018-12-31T18:12:58.412Z,62.03
2018-12-31T18:16:01.610Z,60.47
2018-12-31T18:19:04.937Z,60.73
2018-12-31T18:22:08.000Z,56.73
2018-12-31T18:25:11.091Z,66.60
2018-12-31T18:28:14.192Z,64.17
2018-12-31T18:31:17.691Z,55.70
2018-12-31T18:34:20.787Z,53.30
2018-12-31T18:37:23.875Z,61.03
2018-12-31T18:40:27.075Z,66.80
2018-12-31T18:43:30.164Z,69.57
2018-12-31T18:46:33.366Z,75.00
2018-12-31T18:49:36.455Z,71.53
2018-12-31T18:52:39.659Z,62.73
2018-12-31T18:55:42.746Z,74.57
2018-12-31T18:58:46.513Z,63.30
2018-12-31T19:01:49.950Z,83.47
2018-12-31T19:04:53.043Z,74.03
2018-12-31T19:07:56.138Z,80.87
2018-12-31T19:10:59.333Z,80.30
2018-12-31T19:14:03.924Z,94.75
2018-12-31T19:17:07.299Z,102.20
2018-12-31T19:20:10.447Z,110.53
2018-12-31T19:23:13.694Z,84.55
2018-12-31T19:26:16.943Z,80.37
2018-12-31T19:29:20.178Z,106.07
2018-12-31T19:32:23.439Z,120.67
2018-12-31T19:35:26.573Z,108.93
2018-12-31T19:38:30.957Z,120.90
2018-12-31T19:41:34.095Z,120.53
2018-12-31T19:44:37.243Z,132.70
2018-12-31T19:47:40.372Z,157.67
2018-12-31T19:50:43.531Z,152.57
2018-12-31T19:53:46.867Z,158.97
2018-12-31T19:56:50.022Z,125.65
2018-12-31T19:59:53.268Z,126.35
2018-12-31T20:02:56.614Z,143.78
2018-12-31T20:05:59.758Z,117.37
2018-12-31T20:09:03.903Z,111.47
2018-12-31T20:12:09.563Z,114.90
2018-12-31T20:15:12.787Z,112.45
2018-12-31T20:18:16.017Z,125.97
2018-12-31T20:21:19.170Z,121.43
2018-12-31T20:24:22.403Z,104.10
2018-12-31T20:27:25.455Z,110.63
2018-12-31T20:30:28.591Z,89.07
2018-12-31T20:33:31.950Z,93.67
2018-12-31T20:36:35.187Z,135.87
2018-12-31T20:39:38.232Z,129.73
2018-12-31T20:42:41.578Z,104.75
2018-12-31T20:45:44.626Z,135.57
2018-12-31T20:48:47.759Z,102.60
2018-12-31T20:51:51.014Z,136.90
2018-12-31T20:54:54.162Z,137.75
2018-12-31T20:57:58.219Z,119.85
2018-12-31T21:01:01.362Z,116.47
2018-12-31T21:04:04.411Z,102.38
2018-12-31T21:07:07.543Z,84.43
2018-12-31T21:10:12.642Z,110.48
2018-12-31T21:13:15.778Z,110.57
2018-12-31T21:16:19.747Z,116.25
2018-12-31T21:19:23.188Z,113.30
2018-12-31T21:22:26.446Z,99.30
2018-12-31T21:25:29.583Z,130.40
2018-12-31T21:28:32.636Z,127.17
2018-12-31T21:31:35.771Z,122.85
2018-12-31T21:34:38.923Z,141.20
2018-12-31T21:37:42.053Z,122.10
2018-12-31T21:40:45.106Z,127.43
2018-12-31T21:43:48.240Z,104.80
2018-12-31T21:46:51.394Z,130.47
2018-12-31T21:49:54.493Z,109.97
2018-12-31T21:52:57.687Z,123.97
2018-12-31T21:56:00.782Z,104.90
2018-12-31T21:59:03.967Z,117.30
2018-12-31T22:02:07.475Z,119.10
2018-12-31T22:05:10.567Z,124.60
2018-12-31T22:08:13.668Z,105.97
2018-12-31T22:11:16.850Z,106.35
2018-12-31T22:14:19.947Z,100.25
2018-12-31T22:17:23.142Z,88.77
2018-12-31T22:20:26.347Z,82.67
2018-12-31T22:23:29.431Z,85.25
2018-12-31T22:26:32.731Z,88.22
2018-12-31T22:29:35.819Z,94.17
2018-12-31T22:32:39.427Z,83.80
2018-12-31T22:35:42.519Z,97.25
2018-12-31T22:38:45.717Z,87.85
2018-12-31T22:41:48.810Z,76.45
2018-12-31T22:44:51.907Z,77.20
2018-12-31T22:47:54.994Z,90.25
2018-12-31T22:50:58.087Z,81.35
2018-12-31T22:54:01.084Z,73.05
2018-12-31T22:57:04.175Z,79.42
2018-12-31T23:00:09.280Z,82.50
2018-12-31T23:03:12.809Z,72.08
2018-12-31T23:06:16.148Z,61.60
2018-12-31T23:09:19.196Z,57.73
2018-12-31T23:12:23.766Z,84.05
2018-12-31T23:15:27.533Z,78.57
2018-12-31T23:18:30.785Z,70.72
2018-12-31T23:21:33.828Z,69.05
2018-12-31T23:24:37.051Z,84.65
2018-12-31T23:27:40.210Z,67.75
2018-12-31T23:30:43.475Z,75.05
2018-12-31T23:33:46.908Z,72.08
2018-12-31T23:36:50.135Z,77.93
2018-12-31T23:39:53.298Z,80.90
2018-12-31T23:42:56.523Z,82.78
2018-12-31T23:45:59.690Z,75.80
2018-12-31T23:49:02.918Z,82.40
2018-12-31T23:52:05.982Z,73.92
2018-12-31T23:55:09.072Z,90.35
2018-12-31T23:58:12.448Z,84.45
